Terminal Aerodrome Forecast
Issued by NWS

Home | Current Version | Previous Version | Text Only | Print | Product List | Glossary On
Versions: 1 2 3 4 5 6 7 8 9 10 11 12 13
000
FTUS42 KGSP 222331
TAFAND
TAF
KAND 222331Z 2300/2324 10006KT P6SM BKN035 OVC060
     FM230200 09006KT P6SM VCSH OVC020
     FM230500 10007KT P6SM VCSH OVC015
      TEMPO 2307/2309 4SM -SHRA BR OVC008
     FM230900 10009KT 4SM -SHRA BR OVC008 PROB30 2310/2316 2SM TSRA
      BR OVC004CB
     FM231600 15012KT 3SM SHRA BR OVC008 PROB30 2316/2320 2SM TSRA
      BR OVC004CB=

USA.gov is the U.S. government's official web portal to all federal, state and local government web resources and services.